createdAt,value
2023-02-12T00:01:10.427Z,3.74
2023-02-12T00:03:38.923Z,3.70
2023-02-12T00:06:07.243Z,3.62
2023-02-12T00:08:34.507Z,3.55
2023-02-12T00:11:08.831Z,3.47
2023-02-12T00:13:36.164Z,3.46
2023-02-12T00:16:11.630Z,3.35
2023-02-12T00:18:38.702Z,3.33
2023-02-12T00:21:08.872Z,3.20
2023-02-12T00:23:37.328Z,3.29
2023-02-12T00:26:09.088Z,3.34
2023-02-12T00:28:38.258Z,3.37
2023-02-12T00:31:10.656Z,3.41
2023-02-12T00:33:38.482Z,3.41
2023-02-12T00:36:07.658Z,3.38
2023-02-12T00:38:34.825Z,3.38
2023-02-12T00:41:03.803Z,3.43
2023-02-12T00:43:30.953Z,3.46
2023-02-12T00:45:58.622Z,3.44
2023-02-12T00:48:27.041Z,3.36
2023-02-12T00:50:54.159Z,3.43
2023-02-12T00:53:21.306Z,3.48
2023-02-12T00:55:49.055Z,3.40
2023-02-12T00:58:18.899Z,3.36
2023-02-12T01:00:46.724Z,3.32
2023-02-12T01:03:14.765Z,3.30
2023-02-12T01:05:42.599Z,3.32
2023-02-12T01:08:13.523Z,3.34
2023-02-12T01:10:41.610Z,3.30
2023-02-12T01:13:14.548Z,3.21
2023-02-12T01:15:42.699Z,3.15
2023-02-12T01:18:09.874Z,3.18
2023-02-12T01:20:37.092Z,3.23
2023-02-12T01:23:06.967Z,3.21
2023-02-12T01:25:34.385Z,3.19
2023-02-12T01:28:01.490Z,3.21
2023-02-12T01:30:28.928Z,3.22
2023-02-12T01:32:56.226Z,3.21
2023-02-12T01:35:23.338Z,3.19
2023-02-12T01:37:50.752Z,3.19
2023-02-12T01:40:18.832Z,3.19
2023-02-12T01:42:46.090Z,3.14
2023-02-12T01:45:13.454Z,3.15
2023-02-12T01:47:45.341Z,3.05
2023-02-12T01:50:17.412Z,3.08
2023-02-12T01:52:54.234Z,3.07
2023-02-12T01:55:22.165Z,3.05
2023-02-12T01:57:49.743Z,2.99
2023-02-12T02:00:21.245Z,3.08
2023-02-12T02:02:55.158Z,3.00
2023-02-12T02:05:44.012Z,2.98
2023-02-12T02:08:12.461Z,3.01
2023-02-12T02:10:39.784Z,3.03
2023-02-12T02:13:26.109Z,2.99
2023-02-12T02:15:58.721Z,2.93
2023-02-12T02:18:37.977Z,2.93
2023-02-12T02:21:11.248Z,3.03
2023-02-12T02:24:03.326Z,2.94
2023-02-12T02:26:39.975Z,2.94
2023-02-12T02:29:31.164Z,2.95
2023-02-12T02:32:21.400Z,2.86
2023-02-12T02:35:10.877Z,2.78
2023-02-12T02:37:41.266Z,2.77
2023-02-12T02:40:26.855Z,2.77
2023-02-12T02:43:00.842Z,2.72
2023-02-12T02:45:36.393Z,2.72
2023-02-12T02:48:10.418Z,2.74
2023-02-12T02:50:42.912Z,2.70
2023-02-12T02:53:30.171Z,2.71
2023-02-12T02:56:01.756Z,2.68
2023-02-12T02:58:36.397Z,2.73
2023-02-12T03:01:06.548Z,2.67
2023-02-12T03:03:48.659Z,2.72
2023-02-12T03:06:25.525Z,2.61
2023-02-12T03:09:05.502Z,2.65
2023-02-12T03:11:34.479Z,2.72
2023-02-12T03:14:36.944Z,2.80
2023-02-12T03:17:12.914Z,2.85
2023-02-12T03:19:58.949Z,2.94
2023-02-12T03:22:33.928Z,2.98
2023-02-12T03:25:09.760Z,3.00
2023-02-12T03:27:42.467Z,3.07
2023-02-12T03:30:11.160Z,3.08
2023-02-12T03:33:04.788Z,3.04
2023-02-12T03:35:39.360Z,2.99
2023-02-12T03:38:11.900Z,2.99
2023-02-12T03:41:12.438Z,2.92
2023-02-12T03:43:51.117Z,2.88
2023-02-12T03:46:55.568Z,2.77
2023-02-12T03:49:42.896Z,2.75
2023-02-12T03:52:10.452Z,2.65
2023-02-12T03:54:37.694Z,2.66
2023-02-12T03:57:30.717Z,2.67
2023-02-12T04:00:01.134Z,2.58
2023-02-12T04:02:28.328Z,2.61
2023-02-12T04:04:55.710Z,2.62
2023-02-12T04:07:23.195Z,2.52
2023-02-12T04:09:50.349Z,2.38
2023-02-12T04:12:54.024Z,2.30
2023-02-12T04:15:41.312Z,2.33
2023-02-12T04:18:41.021Z,2.32
2023-02-12T04:21:20.293Z,2.29
2023-02-12T04:23:59.045Z,2.28
2023-02-12T04:26:41.357Z,2.20
2023-02-12T04:29:29.141Z,2.12
2023-02-12T04:32:04.270Z,2.24
2023-02-12T04:34:45.574Z,2.16
2023-02-12T04:37:24.566Z,2.17
2023-02-12T04:39:53.514Z,2.26
2023-02-12T04:42:20.833Z,2.21
2023-02-12T04:44:48.064Z,2.23
2023-02-12T04:47:16.418Z,2.17
2023-02-12T04:49:43.641Z,2.24
2023-02-12T04:52:10.754Z,2.12
2023-02-12T04:54:38.340Z,2.09
2023-02-12T04:57:05.398Z,2.01
2023-02-12T04:59:32.539Z,2.00
2023-02-12T05:01:59.859Z,2.03
2023-02-12T05:04:26.913Z,1.95
2023-02-12T05:06:53.932Z,1.96
2023-02-12T05:09:22.540Z,2.00
2023-02-12T05:11:49.589Z,2.04
2023-02-12T05:14:16.696Z,1.97
2023-02-12T05:16:44.159Z,1.95
2023-02-12T05:19:11.414Z,1.99
2023-02-12T05:21:38.793Z,1.96
2023-02-12T05:24:06.726Z,1.83
2023-02-12T05:26:34.650Z,1.90
2023-02-12T05:29:03.392Z,1.92
2023-02-12T05:31:31.093Z,1.82
2023-02-12T05:33:58.309Z,1.81
2023-02-12T05:36:25.735Z,1.69
2023-02-12T05:38:53.872Z,1.70
2023-02-12T05:41:23.352Z,1.63
2023-02-12T05:43:51.037Z,1.57
2023-02-12T05:46:19.853Z,1.61
2023-02-12T05:48:48.043Z,1.61
2023-02-12T05:51:20.006Z,1.57
2023-02-12T05:53:48.035Z,1.57
2023-02-12T05:56:17.679Z,1.53
2023-02-12T05:58:48.019Z,1.57
2023-02-12T06:01:18.357Z,1.50
2023-02-12T06:03:46.304Z,1.61
2023-02-12T06:06:13.446Z,1.55
2023-02-12T06:08:41.008Z,1.51
2023-02-12T06:11:12.667Z,1.51
2023-02-12T06:13:39.924Z,1.61
2023-02-12T06:16:07.758Z,1.65
2023-02-12T06:18:36.248Z,1.57
2023-02-12T06:21:04.382Z,1.63
2023-02-12T06:23:31.492Z,1.73
2023-02-12T06:25:59.281Z,1.73
2023-02-12T06:28:26.394Z,1.78
2023-02-12T06:30:53.642Z,1.87
2023-02-12T06:33:21.196Z,2.01
2023-02-12T06:35:48.494Z,2.09
2023-02-12T06:38:15.746Z,2.15
2023-02-12T06:40:43.233Z,2.38
2023-02-12T06:43:10.513Z,2.56
2023-02-12T06:45:37.665Z,2.76
2023-02-12T06:48:05.334Z,2.90
2023-02-12T06:50:33.065Z,3.12
2023-02-12T06:53:00.162Z,3.14
2023-02-12T06:55:27.575Z,3.28
2023-02-12T06:57:54.666Z,3.27
2023-02-12T07:00:22.236Z,3.39
2023-02-12T07:02:56.394Z,3.57
2023-02-12T07:05:24.099Z,3.67
2023-02-12T07:07:51.845Z,3.91
2023-02-12T07:10:19.157Z,3.97
2023-02-12T07:12:46.638Z,4.06
2023-02-12T07:15:14.753Z,4.21
2023-02-12T07:17:42.038Z,4.10
2023-02-12T07:20:09.631Z,3.96
2023-02-12T07:22:37.321Z,3.97
2023-02-12T07:25:04.813Z,3.90
2023-02-12T07:27:32.141Z,3.93
2023-02-12T07:29:59.628Z,3.89
2023-02-12T07:32:26.758Z,3.88
2023-02-12T07:34:53.876Z,3.83
2023-02-12T07:37:22.800Z,3.79
2023-02-12T07:39:50.243Z,3.74
2023-02-12T07:42:18.017Z,3.73
2023-02-12T07:44:45.676Z,3.72
2023-02-12T07:47:12.822Z,3.81
2023-02-12T07:49:39.993Z,3.80
2023-02-12T07:52:07.704Z,3.89
2023-02-12T07:54:35.054Z,3.98
2023-02-12T07:57:02.216Z,3.96
2023-02-12T07:59:29.723Z,4.07
2023-02-12T08:01:57.144Z,4.15
2023-02-12T08:04:25.399Z,4.26
2023-02-12T08:06:54.537Z,4.36
2023-02-12T08:09:28.006Z,4.39
2023-02-12T08:11:55.790Z,4.45
2023-02-12T08:14:23.201Z,4.50
2023-02-12T08:16:51.318Z,4.66
2023-02-12T08:19:22.733Z,4.77
2023-02-12T08:21:53.378Z,4.82
2023-02-12T08:24:22.146Z,4.84
2023-02-12T08:26:50.000Z,4.96
2023-02-12T08:29:20.179Z,4.99
2023-02-12T08:31:50.008Z,5.00
2023-02-12T08:34:21.350Z,5.09
2023-02-12T08:36:50.259Z,5.15
2023-02-12T08:39:18.693Z,5.23
2023-02-12T08:41:46.942Z,5.28
2023-02-12T08:44:15.614Z,5.30
2023-02-12T08:46:50.983Z,5.39
2023-02-12T08:49:21.560Z,5.36
2023-02-12T08:51:51.484Z,5.45
2023-02-12T08:54:21.803Z,5.48
2023-02-12T08:56:48.845Z,5.58
2023-02-12T08:59:17.290Z,5.64
2023-02-12T09:01:44.988Z,5.67
2023-02-12T09:04:18.577Z,5.85
2023-02-12T09:06:47.267Z,5.99
2023-02-12T09:09:14.942Z,5.97
2023-02-12T09:11:42.282Z,6.11
2023-02-12T09:14:14.124Z,6.08
2023-02-12T09:16:41.731Z,6.20
2023-02-12T09:19:11.555Z,6.33
2023-02-12T09:21:38.886Z,6.35
2023-02-12T09:24:06.247Z,6.46
2023-02-12T09:26:33.303Z,6.49
2023-02-12T09:29:02.472Z,6.65
2023-02-12T09:31:31.629Z,6.77
2023-02-12T09:34:02.137Z,6.88
2023-02-12T09:36:30.241Z,7.07
2023-02-12T09:38:59.347Z,7.30
2023-02-12T09:41:38.179Z,7.37
2023-02-12T09:44:46.746Z,7.47
2023-02-12T09:47:23.946Z,7.60
2023-02-12T09:50:13.651Z,7.64
2023-02-12T09:52:41.665Z,7.64
2023-02-12T09:55:15.474Z,7.80
2023-02-12T09:57:43.326Z,7.90
2023-02-12T10:00:28.062Z,8.02
2023-02-12T10:02:55.468Z,8.09
2023-02-12T10:05:26.961Z,8.09
2023-02-12T10:08:12.607Z,8.25
2023-02-12T10:11:12.138Z,8.21
2023-02-12T10:13:48.331Z,8.18
2023-02-12T10:16:18.390Z,8.13
2023-02-12T10:19:19.846Z,8.22
2023-02-12T10:22:03.675Z,8.20
2023-02-12T10:24:56.218Z,8.25
2023-02-12T10:27:49.219Z,8.05
2023-02-12T10:30:37.804Z,8.31
2023-02-12T10:33:12.546Z,8.40
2023-02-12T10:35:48.335Z,8.43
2023-02-12T10:38:27.738Z,8.49
2023-02-12T10:40:57.934Z,8.60
2023-02-12T10:43:25.414Z,8.77
2023-02-12T10:45:52.575Z,8.88
2023-02-12T10:48:36.998Z,8.87
2023-02-12T10:51:04.532Z,8.91
2023-02-12T10:53:43.640Z,9.15
2023-02-12T10:56:20.163Z,9.27
2023-02-12T10:58:50.061Z,9.28
2023-02-12T11:01:22.875Z,9.61
2023-02-12T11:03:50.092Z,9.62
2023-02-12T11:06:20.489Z,9.70
2023-02-12T11:08:48.087Z,10.00
2023-02-12T11:11:27.901Z,10.14
2023-02-12T11:14:19.820Z,10.26
2023-02-12T11:16:55.847Z,10.22
2023-02-12T11:19:27.012Z,10.38
2023-02-12T11:22:07.146Z,10.49
2023-02-12T11:24:36.967Z,10.54
2023-02-12T11:27:16.067Z,10.45
2023-02-12T11:29:45.982Z,10.68
2023-02-12T11:32:19.393Z,10.68
2023-02-12T11:35:05.520Z,10.76
2023-02-12T11:37:37.243Z,11.02
2023-02-12T11:40:06.094Z,11.34
2023-02-12T11:42:37.822Z,11.65
2023-02-12T11:45:05.437Z,11.72
2023-02-12T11:47:36.227Z,11.66
2023-02-12T11:50:21.710Z,11.51
2023-02-12T11:52:56.319Z,11.31
2023-02-12T11:55:27.230Z,11.20
2023-02-12T11:58:21.812Z,10.86
2023-02-12T12:01:03.215Z,10.88
2023-02-12T12:03:52.193Z,10.61
2023-02-12T12:06:24.881Z,10.21
2023-02-12T12:09:07.320Z,10.03
2023-02-12T12:11:41.469Z,9.89
2023-02-12T12:14:16.218Z,10.00
2023-02-12T12:17:11.209Z,9.92
2023-02-12T12:19:54.466Z,9.87
2023-02-12T12:22:37.357Z,9.78
2023-02-12T12:25:30.845Z,9.65
2023-02-12T12:28:04.127Z,9.70
2023-02-12T12:30:40.750Z,9.74
2023-02-12T12:33:32.664Z,9.70
2023-02-12T12:36:06.248Z,9.68
2023-02-12T12:38:33.330Z,9.69
2023-02-12T12:41:18.439Z,9.62
2023-02-12T12:43:57.224Z,9.53
2023-02-12T12:46:30.643Z,9.43
2023-02-12T12:49:14.770Z,9.47
2023-02-12T12:51:50.921Z,9.38
2023-02-12T12:54:55.689Z,9.42
2023-02-12T12:57:50.559Z,9.37
2023-02-12T13:00:48.150Z,9.46
2023-02-12T13:04:01.145Z,9.57
2023-02-12T13:06:48.451Z,9.65
2023-02-12T13:09:39.216Z,9.88
2023-02-12T13:12:26.629Z,9.98
2023-02-12T13:15:06.253Z,9.98
2023-02-12T13:17:46.057Z,10.01
2023-02-12T13:20:22.596Z,10.23
2023-02-12T13:23:07.977Z,10.27
2023-02-12T13:25:47.873Z,10.31
2023-02-12T13:28:42.402Z,10.35
2023-02-12T13:31:31.918Z,10.28
2023-02-12T13:34:04.752Z,10.21
2023-02-12T13:36:36.051Z,10.00
2023-02-12T13:39:15.244Z,9.90
2023-02-12T13:41:48.617Z,9.74
2023-02-12T13:45:00.923Z,9.61
2023-02-12T13:47:40.226Z,9.51
2023-02-12T13:50:47.076Z,9.38
2023-02-12T13:53:32.886Z,9.29
2023-02-12T13:56:23.498Z,9.18
2023-02-12T13:58:53.282Z,9.21
2023-02-12T14:01:35.625Z,9.03
2023-02-12T14:04:29.151Z,8.92
2023-02-12T14:07:02.183Z,8.89
2023-02-12T14:09:35.435Z,8.82
2023-02-12T14:12:06.647Z,8.89
2023-02-12T14:14:57.200Z,8.83
2023-02-12T14:17:30.847Z,8.84
2023-02-12T14:20:52.634Z,8.85
2023-02-12T14:23:31.643Z,8.77
2023-02-12T14:26:07.634Z,8.66
2023-02-12T14:28:57.943Z,8.54
2023-02-12T14:31:28.117Z,8.58
2023-02-12T14:34:11.363Z,8.49
2023-02-12T14:36:43.985Z,8.51
2023-02-12T14:39:19.903Z,8.42
2023-02-12T14:41:55.076Z,8.41
2023-02-12T14:44:26.792Z,8.44
2023-02-12T14:46:57.201Z,8.48
2023-02-12T14:49:35.264Z,8.43
2023-02-12T14:52:07.645Z,8.42
2023-02-12T14:54:41.433Z,8.36
2023-02-12T14:57:20.311Z,8.41
2023-02-12T14:59:48.810Z,8.37
2023-02-12T15:02:26.051Z,8.34
2023-02-12T15:04:56.547Z,8.35
2023-02-12T15:07:39.654Z,8.27
2023-02-12T15:10:23.126Z,8.16
2023-02-12T15:13:09.050Z,8.07
2023-02-12T15:15:53.114Z,8.02
2023-02-12T15:18:35.967Z,7.97
2023-02-12T15:21:12.082Z,7.83
2023-02-12T15:23:45.231Z,7.78
2023-02-12T15:26:22.843Z,7.63
2023-02-12T15:28:53.369Z,7.53
2023-02-12T15:31:26.081Z,7.48
2023-02-12T15:33:56.424Z,7.36
2023-02-12T15:36:26.263Z,7.26
2023-02-12T15:38:57.551Z,7.25
2023-02-12T15:41:38.515Z,7.24
2023-02-12T15:44:31.077Z,7.24
2023-02-12T15:47:00.973Z,7.04
2023-02-12T15:49:36.821Z,6.92
2023-02-12T15:52:40.172Z,6.74
2023-02-12T15:55:15.923Z,6.50
2023-02-12T15:57:50.282Z,6.30
2023-02-12T16:00:39.719Z,6.15
2023-02-12T16:03:20.684Z,5.98
2023-02-12T16:05:49.703Z,5.84
2023-02-12T16:08:20.356Z,5.71
2023-02-12T16:10:51.969Z,5.61
2023-02-12T16:13:32.453Z,5.44
2023-02-12T16:16:22.249Z,5.27
2023-02-12T16:19:07.994Z,5.10
2023-02-12T16:21:38.868Z,5.16
2023-02-12T16:24:22.457Z,5.00
2023-02-12T16:26:51.151Z,4.89
2023-02-12T16:29:19.276Z,4.97
2023-02-12T16:31:58.932Z,4.85
2023-02-12T16:34:36.611Z,4.73
2023-02-12T16:37:43.686Z,4.77
2023-02-12T16:40:14.063Z,4.56
2023-02-12T16:42:46.966Z,4.54
2023-02-12T16:45:26.618Z,4.34
2023-02-12T16:47:55.732Z,4.28
2023-02-12T16:50:26.044Z,4.15
2023-02-12T16:53:01.473Z,4.03
2023-02-12T16:55:29.078Z,3.86
2023-02-12T16:57:56.203Z,3.72
2023-02-12T17:00:24.061Z,3.60
2023-02-12T17:02:55.236Z,3.53
2023-02-12T17:05:23.359Z,3.43
2023-02-12T17:07:50.553Z,3.41
2023-02-12T17:10:18.290Z,3.28
2023-02-12T17:12:47.805Z,3.15
2023-02-12T17:15:23.185Z,3.11
2023-02-12T17:17:50.684Z,3.02
2023-02-12T17:20:17.884Z,2.97
2023-02-12T17:22:50.284Z,2.92
2023-02-12T17:25:18.254Z,2.85
2023-02-12T17:27:46.013Z,2.77
2023-02-12T17:30:18.393Z,2.72
2023-02-12T17:32:45.779Z,2.76
2023-02-12T17:35:14.020Z,2.63
2023-02-12T17:37:41.147Z,2.65
2023-02-12T17:40:11.248Z,2.47
2023-02-12T17:42:38.543Z,2.42
2023-02-12T17:45:06.438Z,2.41
2023-02-12T17:47:39.718Z,2.38
2023-02-12T17:50:13.981Z,2.28
2023-02-12T17:52:41.543Z,2.20
2023-02-12T17:55:11.492Z,2.20
2023-02-12T17:57:39.236Z,2.23
2023-02-12T18:00:10.041Z,2.18
2023-02-12T18:02:38.421Z,2.15
2023-02-12T18:05:06.174Z,2.12
2023-02-12T18:07:34.145Z,2.20
2023-02-12T18:10:01.847Z,2.23
2023-02-12T18:12:31.375Z,2.20
2023-02-12T18:15:00.229Z,2.24
2023-02-12T18:17:27.794Z,2.22
2023-02-12T18:19:55.696Z,2.23
2023-02-12T18:22:23.806Z,2.38
2023-02-12T18:24:51.145Z,2.37
2023-02-12T18:27:18.681Z,2.27
2023-02-12T18:29:45.996Z,2.26
2023-02-12T18:32:15.968Z,2.26
2023-02-12T18:34:44.140Z,2.19
2023-02-12T18:37:12.983Z,2.21
2023-02-12T18:39:40.190Z,2.21
2023-02-12T18:42:08.021Z,2.27
2023-02-12T18:44:35.231Z,2.41
2023-02-12T18:47:02.374Z,2.59
2023-02-12T18:49:29.845Z,2.88
2023-02-12T18:51:57.843Z,2.95
2023-02-12T18:54:24.895Z,2.78
2023-02-12T18:56:53.233Z,2.77
2023-02-12T18:59:21.792Z,2.77
2023-02-12T19:01:50.791Z,2.66
2023-02-12T19:04:20.545Z,2.75
2023-02-12T19:06:52.956Z,2.65
2023-02-12T19:09:24.281Z,2.56
2023-02-12T19:11:54.188Z,2.47
2023-02-12T19:14:22.899Z,2.44
2023-02-12T19:16:50.471Z,2.38
2023-02-12T19:19:20.167Z,2.37
2023-02-12T19:21:47.610Z,2.30
2023-02-12T19:24:16.124Z,2.26
2023-02-12T19:26:47.066Z,2.19
2023-02-12T19:29:14.489Z,2.21
2023-02-12T19:31:44.825Z,2.20
2023-02-12T19:34:16.964Z,2.17
2023-02-12T19:36:45.414Z,2.13
2023-02-12T19:39:14.900Z,2.06
2023-02-12T19:41:42.837Z,2.09
2023-02-12T19:44:12.725Z,2.02
2023-02-12T19:46:40.597Z,2.06
2023-02-12T19:49:12.670Z,2.02
2023-02-12T19:51:41.679Z,2.08
2023-02-12T19:54:11.067Z,2.02
2023-02-12T19:56:39.090Z,2.04
2023-02-12T19:59:07.013Z,1.98
2023-02-12T20:01:34.522Z,2.04
2023-02-12T20:04:02.990Z,2.16
2023-02-12T20:06:33.885Z,2.16
2023-02-12T20:09:01.707Z,2.20
2023-02-12T20:11:30.917Z,2.30
2023-02-12T20:13:58.711Z,2.20
2023-02-12T20:16:31.273Z,2.15
2023-02-12T20:19:04.609Z,2.09
2023-02-12T20:21:32.212Z,2.10
2023-02-12T20:24:01.740Z,2.04
2023-02-12T20:26:30.329Z,1.91
2023-02-12T20:28:59.137Z,1.84
2023-02-12T20:31:29.101Z,1.76
2023-02-12T20:34:01.700Z,1.74
2023-02-12T20:36:34.040Z,1.62
2023-02-12T20:39:01.231Z,1.52
2023-02-12T20:41:29.075Z,1.45
2023-02-12T20:43:59.237Z,1.43
2023-02-12T20:46:26.686Z,1.40
2023-02-12T20:48:55.160Z,1.38
2023-02-12T20:51:24.608Z,1.33
2023-02-12T20:53:52.697Z,1.29
2023-02-12T20:56:23.234Z,1.25
2023-02-12T20:58:50.592Z,1.19
2023-02-12T21:01:28.900Z,1.42
2023-02-12T21:03:56.319Z,1.50
2023-02-12T21:06:24.531Z,1.70
2023-02-12T21:08:51.854Z,1.71
2023-02-12T21:11:22.277Z,1.73
2023-02-12T21:13:58.769Z,1.71
2023-02-12T21:16:32.942Z,1.67
2023-02-12T21:19:01.007Z,1.48
2023-02-12T21:21:34.450Z,1.41
2023-02-12T21:24:04.439Z,1.43
2023-02-12T21:26:32.591Z,1.25
2023-02-12T21:29:01.305Z,1.13
2023-02-12T21:31:38.189Z,1.15
2023-02-12T21:34:09.174Z,1.14
2023-02-12T21:36:39.744Z,1.11
2023-02-12T21:39:11.580Z,0.89
2023-02-12T21:41:40.860Z,0.81
2023-02-12T21:44:12.364Z,0.81
2023-02-12T21:46:40.481Z,0.80
2023-02-12T21:49:07.817Z,0.69
2023-02-12T21:51:40.458Z,0.73
2023-02-12T21:54:11.568Z,0.68
2023-02-12T21:56:41.168Z,0.61
2023-02-12T21:59:09.471Z,0.64
2023-02-12T22:01:39.629Z,0.81
2023-02-12T22:04:07.516Z,0.80
2023-02-12T22:06:40.523Z,0.67
2023-02-12T22:09:09.893Z,0.58
2023-02-12T22:11:38.149Z,0.57
2023-02-12T22:14:07.235Z,0.60
2023-02-12T22:16:36.470Z,0.53
2023-02-12T22:19:05.349Z,0.47
2023-02-12T22:21:38.444Z,0.47
2023-02-12T22:24:08.345Z,0.55
2023-02-12T22:26:35.946Z,0.44
2023-02-12T22:29:06.387Z,0.36
2023-02-12T22:31:37.219Z,0.33
2023-02-12T22:34:08.244Z,0.27
2023-02-12T22:36:37.173Z,0.32
2023-02-12T22:39:05.051Z,0.38
2023-02-12T22:41:32.826Z,0.44
2023-02-12T22:44:01.677Z,0.51
2023-02-12T22:46:28.790Z,0.44
2023-02-12T22:48:55.841Z,0.42
2023-02-12T22:51:31.681Z,0.54
2023-02-12T22:53:59.083Z,0.52
2023-02-12T22:56:27.267Z,0.49
2023-02-12T22:58:56.746Z,0.53
2023-02-12T23:01:24.603Z,0.48
2023-02-12T23:03:52.255Z,0.47
2023-02-12T23:06:23.133Z,0.39
2023-02-12T23:08:55.806Z,0.33
2023-02-12T23:11:24.582Z,0.22
2023-02-12T23:13:52.238Z,0.27
2023-02-12T23:16:19.407Z,0.25
2023-02-12T23:18:47.291Z,0.17
2023-02-12T23:21:14.859Z,0.14
2023-02-12T23:23:41.881Z,0.17
2023-02-12T23:26:09.260Z,0.05
2023-02-12T23:28:36.394Z,0.08
2023-02-12T23:31:03.713Z,0.01
2023-02-12T23:33:31.211Z,-0.01
2023-02-12T23:35:58.298Z,0.00
2023-02-12T23:38:25.429Z,0.06
2023-02-12T23:40:52.861Z,0.11
2023-02-12T23:43:19.997Z,0.02
2023-02-12T23:45:47.287Z,-0.03
2023-02-12T23:48:14.698Z,-0.01
2023-02-12T23:50:41.848Z,-0.09
2023-02-12T23:53:10.183Z,-0.02
2023-02-12T23:55:38.825Z,-0.01
2023-02-12T23:58:07.262Z,-0.12
